createdAt,value
2023-02-18T00:00:28.544Z,31.63
2023-02-18T00:02:55.982Z,33.47
2023-02-18T00:05:23.273Z,34.58
2023-02-18T00:07:50.558Z,34.25
2023-02-18T00:10:17.435Z,33.00
2023-02-18T00:12:44.665Z,32.05
2023-02-18T00:15:11.546Z,29.23
2023-02-18T00:17:38.082Z,33.75
2023-02-18T00:20:06.993Z,31.48
2023-02-18T00:22:33.529Z,31.58
2023-02-18T00:25:00.044Z,35.35
2023-02-18T00:27:26.527Z,30.52
2023-02-18T00:29:53.113Z,29.45
2023-02-18T00:32:19.725Z,27.95
2023-02-18T00:34:46.272Z,36.10
2023-02-18T00:37:12.743Z,32.42
2023-02-18T00:39:39.273Z,28.38
2023-02-18T00:42:05.862Z,28.00
2023-02-18T00:44:32.341Z,30.13
2023-02-18T00:46:58.909Z,31.17
2023-02-18T00:49:25.534Z,27.33
2023-02-18T00:51:52.071Z,27.13
2023-02-18T00:54:18.597Z,24.65
2023-02-18T00:56:45.134Z,30.13
2023-02-18T00:59:11.778Z,28.15
2023-02-18T01:01:38.331Z,26.85
2023-02-18T01:04:05.415Z,26.85
2023-02-18T01:06:32.110Z,28.60
2023-02-18T01:08:58.625Z,29.10
2023-02-18T01:11:25.587Z,30.33
2023-02-18T01:13:52.503Z,24.67
2023-02-18T01:16:19.446Z,30.20
2023-02-18T01:18:46.025Z,26.58
2023-02-18T01:21:12.642Z,29.63
2023-02-18T01:23:40.801Z,26.25
2023-02-18T01:26:08.201Z,22.40
2023-02-18T01:28:35.147Z,25.95
2023-02-18T01:31:07.212Z,24.17
2023-02-18T01:33:34.679Z,25.23
2023-02-18T01:36:01.281Z,26.60
2023-02-18T01:38:27.823Z,25.98
2023-02-18T01:40:54.397Z,26.05
2023-02-18T01:43:22.155Z,23.98
2023-02-18T01:45:54.474Z,24.00
2023-02-18T01:48:47.604Z,25.10
2023-02-18T01:51:16.728Z,24.52
2023-02-18T01:54:16.793Z,23.33
2023-02-18T01:57:12.404Z,23.95
2023-02-18T01:59:56.228Z,25.08
2023-02-18T02:02:26.112Z,25.30
2023-02-18T02:04:53.339Z,24.38
2023-02-18T02:07:22.252Z,24.25
2023-02-18T02:09:51.416Z,22.05
2023-02-18T02:12:33.090Z,22.38
2023-02-18T02:15:32.074Z,23.58
2023-02-18T02:18:16.328Z,24.77
2023-02-18T02:21:20.577Z,20.80
2023-02-18T02:24:17.666Z,26.55
2023-02-18T02:27:08.495Z,23.83
2023-02-18T02:29:44.090Z,23.30
2023-02-18T02:32:32.429Z,25.52
2023-02-18T02:35:08.706Z,25.05
2023-02-18T02:37:54.178Z,24.10
2023-02-18T02:40:42.262Z,23.15
2023-02-18T02:43:17.816Z,26.55
2023-02-18T02:46:03.934Z,27.60
2023-02-18T02:48:55.668Z,26.33
2023-02-18T02:51:28.312Z,25.33
2023-02-18T02:53:55.157Z,22.92
2023-02-18T02:56:24.320Z,25.33
2023-02-18T02:59:02.982Z,22.63
2023-02-18T03:01:56.740Z,25.05
2023-02-18T03:04:31.843Z,28.50
2023-02-18T03:07:14.374Z,24.88
2023-02-18T03:10:00.180Z,23.83
2023-02-18T03:12:26.622Z,22.33
2023-02-18T03:15:07.990Z,21.05
2023-02-18T03:17:55.791Z,24.15
2023-02-18T03:20:36.787Z,22.85
2023-02-18T03:23:09.750Z,24.20
2023-02-18T03:25:37.653Z,22.45
2023-02-18T03:28:15.990Z,23.73
2023-02-18T03:31:05.677Z,20.85
2023-02-18T03:33:44.988Z,24.83
2023-02-18T03:36:12.851Z,18.02
2023-02-18T03:38:45.376Z,21.58
2023-02-18T03:41:12.496Z,20.05
2023-02-18T03:43:41.072Z,19.33
2023-02-18T03:46:08.159Z,20.75
2023-02-18T03:48:34.945Z,18.75
2023-02-18T03:51:01.462Z,17.98
2023-02-18T03:53:27.945Z,17.20
2023-02-18T03:55:54.455Z,17.25
2023-02-18T03:58:20.956Z,17.35
2023-02-18T04:00:47.486Z,16.83
2023-02-18T04:03:13.992Z,16.02
2023-02-18T04:05:40.466Z,14.18
2023-02-18T04:08:06.977Z,15.35
2023-02-18T04:10:33.526Z,15.05
2023-02-18T04:13:00.078Z,14.70
2023-02-18T04:15:26.698Z,14.15
2023-02-18T04:17:53.293Z,12.23
2023-02-18T04:20:19.909Z,14.20
2023-02-18T04:22:46.402Z,13.60
2023-02-18T04:25:12.953Z,13.27
2023-02-18T04:27:39.510Z,13.95
2023-02-18T04:30:06.954Z,12.75
2023-02-18T04:32:33.493Z,14.63
2023-02-18T04:34:59.976Z,11.90
2023-02-18T04:37:26.515Z,13.48
2023-02-18T04:39:53.050Z,11.30
2023-02-18T04:42:19.590Z,11.02
2023-02-18T04:44:47.515Z,11.25
2023-02-18T04:47:14.313Z,9.93
2023-02-18T04:49:41.040Z,9.90
2023-02-18T04:52:07.551Z,9.73
2023-02-18T04:54:34.062Z,10.43
2023-02-18T04:57:00.545Z,9.90
2023-02-18T04:59:27.059Z,9.35
2023-02-18T05:01:53.593Z,9.40
2023-02-18T05:04:20.255Z,10.02
2023-02-18T05:06:46.791Z,9.68
2023-02-18T05:09:13.991Z,8.40
2023-02-18T05:11:40.598Z,8.93
2023-02-18T05:14:07.133Z,7.82
2023-02-18T05:16:33.710Z,9.48
2023-02-18T05:19:00.356Z,9.25
2023-02-18T05:21:26.880Z,10.18
2023-02-18T05:23:53.425Z,8.77
2023-02-18T05:26:19.953Z,7.30
2023-02-18T05:28:46.451Z,7.65
2023-02-18T05:31:13.113Z,8.27
2023-02-18T05:33:39.781Z,7.47
2023-02-18T05:36:06.786Z,8.57
2023-02-18T05:38:33.539Z,6.60
2023-02-18T05:41:00.113Z,6.63
2023-02-18T05:43:26.618Z,6.63
2023-02-18T05:45:53.123Z,6.78
2023-02-18T05:48:19.682Z,8.05
2023-02-18T05:50:46.168Z,7.88
2023-02-18T05:53:12.690Z,9.35
2023-02-18T05:55:39.460Z,8.77
2023-02-18T05:58:06.709Z,7.10
2023-02-18T06:00:33.250Z,6.60
2023-02-18T06:02:59.959Z,6.63
2023-02-18T06:05:26.542Z,7.53
2023-02-18T06:07:54.779Z,7.35
2023-02-18T06:10:22.881Z,6.47
2023-02-18T06:12:49.443Z,6.18
2023-02-18T06:15:16.105Z,7.32
2023-02-18T06:17:42.761Z,5.82
2023-02-18T06:20:09.717Z,6.32
2023-02-18T06:22:36.221Z,7.35
2023-02-18T06:25:02.755Z,7.93
2023-02-18T06:27:29.261Z,6.30
2023-02-18T06:29:55.792Z,6.05
2023-02-18T06:32:22.428Z,6.55
2023-02-18T06:34:49.067Z,6.38
2023-02-18T06:37:15.538Z,6.68
2023-02-18T06:39:42.051Z,6.10
2023-02-18T06:42:08.571Z,5.82
2023-02-18T06:44:37.496Z,4.85
2023-02-18T06:47:04.585Z,6.47
2023-02-18T06:49:31.113Z,6.75
2023-02-18T06:51:57.613Z,5.85
2023-02-18T06:54:25.006Z,5.10
2023-02-18T06:56:51.565Z,6.25
2023-02-18T06:59:18.098Z,6.72
2023-02-18T07:01:44.570Z,7.18
2023-02-18T07:04:11.120Z,6.50
2023-02-18T07:06:37.618Z,7.60
2023-02-18T07:09:04.764Z,8.07
2023-02-18T07:11:31.426Z,10.75
2023-02-18T07:13:57.952Z,10.85
2023-02-18T07:16:24.475Z,11.32
2023-02-18T07:18:51.005Z,11.77
2023-02-18T07:21:17.681Z,16.83
2023-02-18T07:23:44.340Z,18.05
2023-02-18T07:26:12.778Z,18.20
2023-02-18T07:28:40.765Z,20.95
2023-02-18T07:31:08.558Z,23.58
2023-02-18T07:33:35.141Z,21.10
2023-02-18T07:36:02.769Z,22.88
2023-02-18T07:38:29.803Z,23.33
2023-02-18T07:40:57.269Z,24.77
2023-02-18T07:43:24.465Z,23.90
2023-02-18T07:45:50.979Z,22.25
2023-02-18T07:48:17.550Z,25.10
2023-02-18T07:50:45.941Z,23.83
2023-02-18T07:53:14.531Z,28.60
2023-02-18T07:55:49.833Z,23.80
2023-02-18T07:58:17.170Z,25.58
2023-02-18T08:00:44.034Z,26.75
2023-02-18T08:03:10.861Z,26.00
2023-02-18T08:05:37.724Z,30.35
2023-02-18T08:08:04.510Z,30.50
2023-02-18T08:10:31.056Z,29.52
2023-02-18T08:12:57.547Z,29.85
2023-02-18T08:15:24.131Z,31.45
2023-02-18T08:17:50.678Z,32.15
2023-02-18T08:20:17.250Z,33.95
2023-02-18T08:22:44.700Z,37.97
2023-02-18T08:25:20.882Z,37.63
2023-02-18T08:27:54.140Z,39.20
2023-02-18T08:30:20.874Z,38.83
2023-02-18T08:32:47.486Z,36.75
2023-02-18T08:35:14.163Z,47.92
2023-02-18T08:37:53.807Z,49.20
2023-02-18T08:40:21.136Z,58.72
2023-02-18T08:42:47.650Z,72.32
2023-02-18T08:45:14.159Z,76.47
2023-02-18T08:48:17.250Z,77.68
2023-02-18T08:50:28.235Z,84.35
2023-02-18T08:52:55.231Z,87.85
2023-02-18T08:55:21.860Z,89.30
2023-02-18T08:57:49.081Z,93.75
2023-02-18T09:00:17.407Z,94.22
2023-02-18T09:02:44.582Z,95.43
2023-02-18T09:05:12.347Z,86.63
2023-02-18T09:07:38.881Z,84.47
2023-02-18T09:10:06.695Z,83.63
2023-02-18T09:12:33.739Z,87.32
2023-02-18T09:15:00.643Z,77.95
2023-02-18T09:17:27.973Z,86.68
2023-02-18T09:19:54.668Z,77.90
2023-02-18T09:22:21.298Z,72.43
2023-02-18T09:24:47.819Z,75.03
2023-02-18T09:27:14.953Z,70.70
2023-02-18T09:29:41.994Z,65.55
2023-02-18T09:32:09.736Z,64.72
2023-02-18T09:34:36.530Z,68.18
2023-02-18T09:37:03.263Z,62.88
2023-02-18T09:39:29.815Z,62.38
2023-02-18T09:42:00.783Z,64.63
2023-02-18T09:44:39.469Z,58.53
2023-02-18T09:47:14.160Z,64.25
2023-02-18T09:49:46.175Z,62.47
2023-02-18T09:52:14.860Z,56.03
2023-02-18T09:54:41.537Z,65.35
2023-02-18T09:57:22.179Z,60.58
2023-02-18T09:59:56.901Z,69.13
2023-02-18T10:02:24.370Z,79.82
2023-02-18T10:04:54.213Z,92.15
2023-02-18T10:07:29.139Z,84.53
2023-02-18T10:09:57.666Z,83.53
2023-02-18T10:12:26.625Z,85.75
2023-02-18T10:14:56.164Z,83.97
2023-02-18T10:17:28.426Z,76.68
2023-02-18T10:19:56.382Z,69.43
2023-02-18T10:22:25.462Z,79.53
2023-02-18T10:25:02.934Z,83.97
2023-02-18T10:27:29.380Z,81.13
2023-02-18T10:29:59.510Z,72.93
2023-02-18T10:32:41.061Z,65.25
2023-02-18T10:35:23.610Z,68.97
2023-02-18T10:37:53.216Z,62.58
2023-02-18T10:40:32.342Z,59.15
2023-02-18T10:43:13.944Z,54.67
2023-02-18T10:46:01.490Z,61.70
2023-02-18T10:48:49.429Z,51.00
2023-02-18T10:51:21.914Z,53.83
2023-02-18T10:53:51.475Z,53.28
2023-02-18T10:56:32.960Z,55.00
2023-02-18T10:59:24.193Z,69.90
2023-02-18T11:01:58.033Z,58.70
2023-02-18T11:04:35.468Z,55.92
2023-02-18T11:07:25.446Z,57.10
2023-02-18T11:09:58.623Z,57.95
2023-02-18T11:12:46.286Z,57.03
2023-02-18T11:15:16.345Z,55.67
2023-02-18T11:17:46.397Z,53.17
2023-02-18T11:20:30.276Z,55.38
2023-02-18T11:23:16.111Z,50.15
2023-02-18T11:25:54.955Z,53.65
2023-02-18T11:28:21.408Z,57.38
2023-02-18T11:30:54.077Z,64.05
2023-02-18T11:33:26.399Z,64.97
2023-02-18T11:35:55.942Z,69.18
2023-02-18T11:38:37.009Z,68.88
2023-02-18T11:41:09.173Z,74.32
2023-02-18T11:43:36.683Z,69.93
2023-02-18T11:46:11.061Z,74.95
2023-02-18T11:48:38.365Z,72.03
2023-02-18T11:51:07.177Z,67.85
2023-02-18T11:53:36.168Z,65.57
2023-02-18T11:56:16.401Z,69.93
2023-02-18T11:58:48.457Z,70.38
2023-02-18T12:01:36.015Z,66.03
2023-02-18T12:04:35.016Z,66.50
2023-02-18T12:07:26.850Z,68.65
2023-02-18T12:09:58.099Z,77.93
2023-02-18T12:12:33.447Z,81.53
2023-02-18T12:15:00.572Z,76.82
2023-02-18T12:17:59.443Z,84.68
2023-02-18T12:20:38.070Z,84.70
2023-02-18T12:23:26.159Z,83.05
2023-02-18T12:26:07.119Z,75.40
2023-02-18T12:28:54.419Z,87.57
2023-02-18T12:31:26.729Z,76.32
2023-02-18T12:33:55.847Z,64.72
2023-02-18T12:37:07.854Z,68.22
2023-02-18T12:39:58.803Z,65.63
2023-02-18T12:42:45.573Z,59.45
2023-02-18T12:45:42.356Z,57.90
2023-02-18T12:48:42.014Z,54.63
2023-02-18T12:51:34.902Z,51.85
2023-02-18T12:54:21.987Z,48.97
2023-02-18T12:57:27.331Z,59.85
2023-02-18T13:00:15.647Z,61.00
2023-02-18T13:03:00.479Z,57.63
2023-02-18T13:05:29.615Z,62.17
2023-02-18T13:08:05.051Z,61.10
2023-02-18T13:10:58.387Z,62.83
2023-02-18T13:13:28.207Z,59.13
2023-02-18T13:16:13.402Z,59.30
2023-02-18T13:19:07.721Z,53.05
2023-02-18T13:24:07.415Z,48.40
2023-02-18T13:26:34.966Z,50.97
2023-02-18T13:29:16.495Z,44.33
2023-02-18T13:32:10.529Z,45.95
2023-02-18T13:34:42.973Z,45.10
2023-02-18T13:37:18.604Z,41.25
2023-02-18T13:39:51.963Z,37.50
2023-02-18T13:42:18.417Z,40.47
2023-02-18T13:44:57.433Z,38.03
2023-02-18T13:47:44.306Z,44.90
2023-02-18T13:50:22.234Z,39.03
2023-02-18T13:53:01.020Z,42.88
2023-02-18T13:55:47.172Z,40.40
2023-02-18T13:58:21.584Z,46.90
2023-02-18T14:01:03.054Z,37.45
2023-02-18T14:03:33.481Z,41.00
2023-02-18T14:06:00.086Z,39.63
2023-02-18T14:08:37.341Z,42.67
2023-02-18T14:11:12.851Z,38.00
2023-02-18T14:14:15.481Z,40.65
2023-02-18T14:17:13.221Z,36.80
2023-02-18T14:19:40.376Z,35.72
2023-02-18T14:22:32.390Z,35.83
2023-02-18T14:25:17.006Z,28.65
2023-02-18T14:27:44.012Z,40.03
2023-02-18T14:30:41.051Z,33.63
2023-02-18T14:33:15.532Z,43.17
2023-02-18T14:35:57.308Z,27.08
2023-02-18T14:39:01.353Z,28.65
2023-02-18T14:41:47.092Z,34.95
2023-02-18T14:44:34.760Z,38.00
2023-02-18T14:47:07.426Z,25.13
2023-02-18T14:49:33.959Z,29.23
2023-02-18T14:52:01.229Z,22.15
2023-02-18T14:54:30.269Z,25.67
2023-02-18T14:57:00.896Z,25.27
2023-02-18T14:59:31.447Z,32.55
2023-02-18T15:01:58.260Z,24.88
2023-02-18T15:04:26.215Z,25.10
2023-02-18T15:07:04.736Z,23.00
2023-02-18T15:09:31.732Z,19.52
2023-02-18T15:12:04.674Z,20.63
2023-02-18T15:14:37.209Z,20.10
2023-02-18T15:17:05.597Z,22.23
2023-02-18T15:19:42.754Z,20.70
2023-02-18T15:22:21.904Z,19.67
2023-02-18T15:24:50.412Z,20.60
2023-02-18T15:27:23.506Z,18.00
2023-02-18T15:29:52.344Z,16.42
2023-02-18T15:32:21.669Z,21.23
2023-02-18T15:34:54.471Z,15.43
2023-02-18T15:37:21.008Z,25.88
2023-02-18T15:39:48.423Z,24.15
2023-02-18T15:42:35.855Z,31.88
2023-02-18T15:45:22.323Z,29.92
2023-02-18T15:47:55.258Z,34.20
2023-02-18T15:50:26.429Z,34.53
2023-02-18T15:52:54.737Z,38.60
2023-02-18T15:55:31.945Z,40.50
2023-02-18T15:58:05.335Z,38.63
2023-02-18T16:00:41.762Z,42.95
2023-02-18T16:03:31.712Z,41.38
2023-02-18T16:06:29.602Z,37.97
2023-02-18T16:09:01.701Z,41.17
2023-02-18T16:11:35.544Z,38.80
2023-02-18T16:14:02.419Z,47.25
2023-02-18T16:16:33.433Z,45.05
2023-02-18T16:19:01.016Z,55.17
2023-02-18T16:21:38.844Z,56.58
2023-02-18T16:24:40.700Z,50.47
2023-02-18T16:27:17.086Z,58.15
2023-02-18T16:29:44.691Z,50.90
2023-02-18T16:32:11.407Z,57.17
2023-02-18T16:34:38.108Z,58.67
2023-02-18T16:37:23.405Z,56.50
2023-02-18T16:39:51.980Z,56.70
2023-02-18T16:42:18.633Z,53.42
2023-02-18T16:44:45.177Z,58.17
2023-02-18T16:47:16.160Z,54.17
2023-02-18T16:49:45.991Z,55.55
2023-02-18T16:52:16.140Z,53.90
2023-02-18T16:54:43.152Z,51.40
2023-02-18T16:57:11.321Z,48.60
2023-02-18T16:59:37.824Z,47.95
2023-02-18T17:02:04.634Z,47.72
2023-02-18T17:04:31.254Z,49.20
2023-02-18T17:06:57.966Z,44.58
2023-02-18T17:09:27.025Z,44.28
2023-02-18T17:11:55.087Z,44.67
2023-02-18T17:14:23.401Z,42.83
2023-02-18T17:16:53.435Z,44.80
2023-02-18T17:19:23.078Z,41.03
2023-02-18T17:21:49.985Z,47.90
2023-02-18T17:24:18.262Z,35.88
2023-02-18T17:26:45.006Z,40.92
2023-02-18T17:29:11.777Z,36.95
2023-02-18T17:31:41.771Z,38.53
2023-02-18T17:34:12.736Z,35.95
2023-02-18T17:36:45.255Z,35.90
2023-02-18T17:39:14.339Z,38.10
2023-02-18T17:41:41.427Z,31.42
2023-02-18T17:44:22.447Z,35.03
2023-02-18T17:46:52.788Z,36.13
2023-02-18T17:49:19.342Z,37.30
2023-02-18T17:51:45.982Z,33.28
2023-02-18T17:54:14.179Z,34.53
2023-02-18T17:56:41.432Z,33.53
2023-02-18T17:59:08.206Z,36.35
2023-02-18T18:01:34.884Z,35.53
2023-02-18T18:04:01.518Z,33.72
2023-02-18T18:06:28.340Z,40.05
2023-02-18T18:08:54.851Z,38.63
2023-02-18T18:11:23.982Z,39.05
2023-02-18T18:13:52.871Z,35.95
2023-02-18T18:16:19.933Z,36.75
2023-02-18T18:18:46.516Z,40.42
2023-02-18T18:21:23.163Z,37.35
2023-02-18T18:23:50.339Z,36.85
2023-02-18T18:26:17.313Z,37.42
2023-02-18T18:28:44.016Z,38.45
2023-02-18T18:31:18.719Z,36.40
2023-02-18T18:36:16.920Z,40.75
2023-02-18T18:38:43.419Z,37.00
2023-02-18T18:41:18.888Z,34.70
2023-02-18T18:43:46.033Z,34.05
2023-02-18T18:46:12.674Z,33.63
2023-02-18T18:48:39.280Z,34.33
2023-02-18T18:51:06.144Z,35.25
2023-02-18T18:53:35.810Z,35.55
2023-02-18T18:56:06.671Z,35.70
2023-02-18T18:58:33.686Z,34.58
2023-02-18T19:01:05.478Z,38.20
2023-02-18T19:03:33.908Z,39.67
2023-02-18T19:06:00.466Z,37.47
2023-02-18T19:08:27.109Z,39.67
2023-02-18T19:10:55.921Z,45.83
2023-02-18T19:13:30.926Z,42.67
2023-02-18T19:16:18.024Z,43.03
2023-02-18T19:18:44.798Z,42.25
2023-02-18T19:21:12.432Z,41.42
2023-02-18T19:23:39.841Z,43.00
2023-02-18T19:26:07.650Z,45.33
2023-02-18T19:28:34.764Z,43.92
2023-02-18T19:31:01.448Z,42.55
2023-02-18T19:33:28.248Z,44.28
2023-02-18T19:35:54.763Z,48.47
2023-02-18T19:38:21.361Z,45.58
2023-02-18T19:40:48.245Z,40.53
2023-02-18T19:43:14.781Z,43.30
2023-02-18T19:45:43.668Z,46.08
2023-02-18T19:48:11.879Z,43.30
2023-02-18T19:50:40.654Z,44.47
2023-02-18T19:53:07.388Z,39.50
2023-02-18T19:55:34.447Z,39.35
2023-02-18T19:58:01.000Z,40.50
2023-02-18T20:00:27.548Z,38.58
2023-02-18T20:02:54.155Z,40.13
2023-02-18T20:05:20.811Z,35.75
2023-02-18T20:07:47.408Z,39.00
2023-02-18T20:10:17.378Z,34.92
2023-02-18T20:12:43.981Z,35.45
2023-02-18T20:17:39.389Z,35.05
2023-02-18T20:20:07.533Z,38.05
2023-02-18T20:22:34.486Z,41.55
2023-02-18T20:25:01.164Z,49.15
2023-02-18T20:27:27.727Z,51.47
2023-02-18T20:29:54.327Z,48.83
2023-02-18T20:32:20.863Z,54.20
2023-02-18T20:34:47.613Z,56.72
2023-02-18T20:37:14.160Z,57.55
2023-02-18T20:39:40.812Z,58.88
2023-02-18T20:42:16.004Z,56.40
2023-02-18T20:44:43.805Z,59.88
2023-02-18T20:47:10.543Z,60.97
2023-02-18T20:49:37.121Z,63.97
2023-02-18T20:52:03.813Z,59.35
2023-02-18T20:54:30.579Z,61.85
2023-02-18T20:56:57.109Z,66.72
2023-02-18T20:59:24.038Z,64.05
2023-02-18T21:01:50.659Z,65.43
2023-02-18T21:04:19.702Z,62.72
2023-02-18T21:06:47.456Z,62.28
2023-02-18T21:09:15.784Z,57.88
2023-02-18T21:11:43.099Z,59.92
2023-02-18T21:14:10.479Z,62.00
2023-02-18T21:16:40.448Z,58.92
2023-02-18T21:19:11.136Z,58.47
2023-02-18T21:21:37.705Z,59.25
2023-02-18T21:24:04.539Z,60.05
2023-02-18T21:26:31.053Z,55.80
2023-02-18T21:29:00.964Z,55.78
2023-02-18T21:31:30.741Z,51.63
2023-02-18T21:33:57.780Z,54.10
2023-02-18T21:36:25.283Z,50.75
2023-02-18T21:38:56.960Z,50.65
2023-02-18T21:41:24.006Z,53.13
2023-02-18T21:43:50.972Z,46.05
2023-02-18T21:46:20.314Z,49.80
2023-02-18T21:49:02.212Z,48.85
2023-02-18T21:51:49.244Z,47.83
2023-02-18T21:54:17.124Z,49.70
2023-02-18T21:56:43.762Z,49.97
2023-02-18T21:59:10.399Z,40.67
2023-02-18T22:01:36.971Z,49.50
2023-02-18T22:04:03.698Z,43.00
2023-02-18T22:06:30.190Z,44.78
2023-02-18T22:08:59.107Z,46.38
2023-02-18T22:11:25.590Z,49.97
2023-02-18T22:13:52.242Z,49.55
2023-02-18T22:16:18.759Z,52.03
2023-02-18T22:18:45.278Z,52.97
2023-02-18T22:21:11.979Z,52.45
2023-02-18T22:23:38.728Z,55.17
2023-02-18T22:26:07.882Z,54.33
2023-02-18T22:28:35.027Z,60.65
2023-02-18T22:31:10.108Z,56.75
2023-02-18T22:33:36.785Z,57.88
2023-02-18T22:36:05.419Z,63.13
2023-02-18T22:38:33.878Z,58.88
2023-02-18T22:41:04.508Z,61.90
2023-02-18T22:43:31.060Z,59.67
2023-02-18T22:46:02.049Z,60.67
2023-02-18T22:48:30.319Z,59.63
2023-02-18T22:50:56.846Z,59.97
2023-02-18T22:53:23.384Z,63.55
2023-02-18T22:55:49.940Z,60.05
2023-02-18T22:58:16.497Z,58.20
2023-02-18T23:00:43.052Z,59.08
2023-02-18T23:03:09.579Z,52.70
2023-02-18T23:05:36.129Z,54.67
2023-02-18T23:08:04.307Z,52.42
2023-02-18T23:10:32.370Z,55.05
2023-02-18T23:12:58.973Z,51.60
2023-02-18T23:15:25.707Z,51.85
2023-02-18T23:17:52.230Z,52.85
2023-02-18T23:20:38.850Z,47.13
2023-02-18T23:23:05.402Z,50.90
2023-02-18T23:25:32.319Z,51.10
2023-02-18T23:27:59.056Z,49.03
2023-02-18T23:30:25.761Z,48.92
2023-02-18T23:32:52.425Z,45.78
2023-02-18T23:35:18.941Z,45.67
2023-02-18T23:38:03.926Z,45.25
2023-02-18T23:40:30.647Z,44.90
2023-02-18T23:42:57.388Z,47.65
2023-02-18T23:45:24.196Z,39.53
2023-02-18T23:47:50.671Z,39.85
2023-02-18T23:50:17.207Z,40.25
2023-02-18T23:52:43.865Z,41.20
2023-02-18T23:55:10.636Z,36.35
2023-02-18T23:57:37.127Z,35.88
